sensor_id;sensor_type;location;lat;lon;timestamp;pressure;altitude;pressure_sealevel;temperature;humidity
39681;BME280;26327;42.550;23.120;2023-04-27T04:51:05;92680.69;;;6.50;69.24
39681;BME280;26327;42.550;23.120;2023-04-27T04:53:31;92588.22;;;6.05;70.49
39681;BME280;26327;42.550;23.120;2023-04-27T04:55:56;92675.06;;;6.71;68.88
39681;BME280;26327;42.550;23.120;2023-04-27T04:58:22;92643.91;;;6.73;66.48
39681;BME280;26327;42.550;23.120;2023-04-27T05:00:47;92622.47;;;6.64;67.35
39681;BME280;26327;42.550;23.120;2023-04-27T05:03:13;92680.53;;;7.17;66.13
39681;BME280;26327;42.550;23.120;2023-04-27T05:05:38;92657.09;;;7.02;66.87
39681;BME280;26327;42.550;23.120;2023-04-27T05:08:03;92686.00;;;7.06;65.31
39681;BME280;26327;42.550;23.120;2023-04-27T05:10:29;92598.72;;;6.85;64.62
39681;BME280;26327;42.550;23.120;2023-04-27T05:12:54;92683.72;;;7.27;65.04
39681;BME280;26327;42.550;23.120;2023-04-27T05:15:20;92621.09;;;7.01;65.37
39681;BME280;26327;42.550;23.120;2023-04-27T05:17:45;92682.88;;;7.43;64.61
39681;BME280;26327;42.550;23.120;2023-04-27T05:20:10;92691.09;;;7.54;64.99
39681;BME280;26327;42.550;23.120;2023-04-27T05:22:36;92696.09;;;7.64;64.47
39681;BME280;26327;42.550;23.120;2023-04-27T05:25:01;92672.19;;;7.62;62.47
39681;BME280;26327;42.550;23.120;2023-04-27T05:27:28;92687.81;;;7.77;63.23
39681;BME280;26327;42.550;23.120;2023-04-27T05:29:53;92697.81;;;7.80;62.75
39681;BME280;26327;42.550;23.120;2023-04-27T05:32:18;92641.16;;;7.54;61.31
39681;BME280;26327;42.550;23.120;2023-04-27T05:34:44;92640.53;;;7.60;61.05
39681;BME280;26327;42.550;23.120;2023-04-27T05:37:09;92632.38;;;7.71;60.28
39681;BME280;26327;42.550;23.120;2023-04-27T05:39:35;92700.88;;;8.23;59.03
39681;BME280;26327;42.550;23.120;2023-04-27T05:42:01;92702.22;;;8.10;60.09
39681;BME280;26327;42.550;23.120;2023-04-27T05:44:27;92711.00;;;8.32;60.28
39681;BME280;26327;42.550;23.120;2023-04-27T05:46:52;92716.28;;;8.47;59.99
39681;BME280;26327;42.550;23.120;2023-04-27T05:49:18;92656.41;;;8.19;60.18
39681;BME280;26327;42.550;23.120;2023-04-27T05:51:43;92707.06;;;8.52;58.64
39681;BME280;26327;42.550;23.120;2023-04-27T05:54:08;92703.78;;;8.59;57.72
39681;BME280;26327;42.550;23.120;2023-04-27T05:56:34;92662.59;;;8.41;57.80
39681;BME280;26327;42.550;23.120;2023-04-27T05:58:59;92708.25;;;8.88;57.56
39681;BME280;26327;42.550;23.120;2023-04-27T06:01:25;92706.78;;;8.70;56.74
39681;BME280;26327;42.550;23.120;2023-04-27T06:03:50;92681.44;;;8.80;57.34
39681;BME280;26327;42.550;23.120;2023-04-27T06:06:16;92723.28;;;8.92;56.13
39681;BME280;26327;42.550;23.120;2023-04-27T06:08:41;92628.63;;;8.67;57.09
39681;BME280;26327;42.550;23.120;2023-04-27T06:11:07;92634.47;;;8.98;56.27
39681;BME280;26327;42.550;23.120;2023-04-27T06:13:32;92644.59;;;9.60;53.34
39681;BME280;26327;42.550;23.120;2023-04-27T06:15:59;92652.88;;;10.00;53.51
39681;BME280;26327;42.550;23.120;2023-04-27T06:18:24;92710.28;;;10.92;51.33
39681;BME280;26327;42.550;23.120;2023-04-27T06:20:50;92701.28;;;10.94;51.38
39681;BME280;26327;42.550;23.120;2023-04-27T06:23:15;92711.19;;;11.06;50.22
39681;BME280;26327;42.550;23.120;2023-04-27T06:25:40;92703.94;;;11.22;50.02
39681;BME280;26327;42.550;23.120;2023-04-27T06:28:06;92695.88;;;11.66;49.35
39681;BME280;26327;42.550;23.120;2023-04-27T06:30:31;92691.72;;;12.07;47.89
39681;BME280;26327;42.550;23.120;2023-04-27T06:32:57;92685.69;;;12.41;46.85
39681;BME280;26327;42.550;23.120;2023-04-27T06:35:22;92683.66;;;12.36;45.94
39681;BME280;26327;42.550;23.120;2023-04-27T06:37:48;92652.06;;;12.05;46.28
39681;BME280;26327;42.550;23.120;2023-04-27T06:40:13;92607.91;;;12.38;45.26
39681;BME280;26327;42.550;23.120;2023-04-27T06:42:38;92630.84;;;13.15;44.90
39681;BME280;26327;42.550;23.120;2023-04-27T06:45:04;92683.81;;;14.72;41.89
39681;BME280;26327;42.550;23.120;2023-04-27T06:47:31;92668.13;;;15.60;41.28
39681;BME280;26327;42.550;23.120;2023-04-27T06:49:56;92612.47;;;16.75;36.74
39681;BME280;26327;42.550;23.120;2023-04-27T06:52:22;92630.88;;;17.40;36.04
39681;BME280;26327;42.550;23.120;2023-04-27T06:54:47;92668.38;;;18.40;34.87
39681;BME280;26327;42.550;23.120;2023-04-27T06:57:12;92610.97;;;18.37;33.66
39681;BME280;26327;42.550;23.120;2023-04-27T06:59:38;92627.88;;;19.72;31.72
39681;BME280;26327;42.550;23.120;2023-04-27T07:02:04;92642.25;;;20.80;29.56
39681;BME280;26327;42.550;23.120;2023-04-27T07:04:30;92663.81;;;21.43;28.06
39681;BME280;26327;42.550;23.120;2023-04-27T07:06:55;92571.25;;;20.57;27.44
39681;BME280;26327;42.550;23.120;2023-04-27T07:09:21;92661.34;;;19.71;27.89
39681;BME280;26327;42.550;23.120;2023-04-27T07:11:46;92662.94;;;17.95;29.88
39681;BME280;26327;42.550;23.120;2023-04-27T07:14:12;92672.28;;;17.14;32.85
39681;BME280;26327;42.550;23.120;2023-04-27T07:16:38;92644.16;;;15.82;34.02
39681;BME280;26327;42.550;23.120;2023-04-27T07:19:03;92620.81;;;15.80;33.51
39681;BME280;26327;42.550;23.120;2023-04-27T07:21:28;92672.59;;;15.53;34.63
39681;BME280;26327;42.550;23.120;2023-04-27T07:23:54;92673.75;;;14.69;36.89
39681;BME280;26327;42.550;23.120;2023-04-27T07:26:19;92641.13;;;14.27;37.01
39681;BME280;26327;42.550;23.120;2023-04-27T07:28:48;92607.78;;;14.16;37.01
39681;BME280;26327;42.550;23.120;2023-04-27T07:31:14;92663.25;;;14.76;35.87
39681;BME280;26327;42.550;23.120;2023-04-27T07:33:40;92650.81;;;14.20;37.34
39681;BME280;26327;42.550;23.120;2023-04-27T07:36:05;92678.00;;;14.64;36.56
39681;BME280;26327;42.550;23.120;2023-04-27T07:38:31;92574.34;;;13.93;36.22
39681;BME280;26327;42.550;23.120;2023-04-27T07:40:58;92614.38;;;14.32;36.47
39681;BME280;26327;42.550;23.120;2023-04-27T07:43:26;92601.59;;;14.10;35.98
39681;BME280;26327;42.550;23.120;2023-04-27T07:45:51;92671.88;;;14.32;36.60
39681;BME280;26327;42.550;23.120;2023-04-27T07:48:18;92600.91;;;13.83;37.36
39681;BME280;26327;42.550;23.120;2023-04-27T07:50:44;92664.75;;;13.94;38.34
39681;BME280;26327;42.550;23.120;2023-04-27T07:53:09;92598.78;;;13.21;37.96
39681;BME280;26327;42.550;23.120;2023-04-27T07:55:35;92664.53;;;13.96;38.13
39681;BME280;26327;42.550;23.120;2023-04-27T07:58:01;92600.69;;;13.85;37.39
39681;BME280;26327;42.550;23.120;2023-04-27T08:00:26;92664.34;;;13.97;37.83
39681;BME280;26327;42.550;23.120;2023-04-27T08:02:52;92666.56;;;13.87;38.53
39681;BME280;26327;42.550;23.120;2023-04-27T08:05:18;92666.00;;;13.59;38.58
39681;BME280;26327;42.550;23.120;2023-04-27T08:07:44;92634.28;;;13.48;38.50
39681;BME280;26327;42.550;23.120;2023-04-27T08:10:09;92645.94;;;13.46;38.40
39681;BME280;26327;42.550;23.120;2023-04-27T08:12:35;92624.25;;;13.19;39.13
39681;BME280;26327;42.550;23.120;2023-04-27T08:15:00;92678.47;;;13.37;40.28
39681;BME280;26327;42.550;23.120;2023-04-27T08:17:26;92622.59;;;12.65;40.04
39681;BME280;26327;42.550;23.120;2023-04-27T08:19:51;92642.22;;;12.61;39.87
39681;BME280;26327;42.550;23.120;2023-04-27T08:22:17;92678.88;;;13.40;40.66
39681;BME280;26327;42.550;23.120;2023-04-27T08:24:42;92639.78;;;14.05;39.78
39681;BME280;26327;42.550;23.120;2023-04-27T08:27:08;92656.88;;;14.01;38.99
39681;BME280;26327;42.550;23.120;2023-04-27T08:29:33;92658.56;;;13.75;39.66
39681;BME280;26327;42.550;23.120;2023-04-27T08:32:00;92630.69;;;13.43;40.12
39681;BME280;26327;42.550;23.120;2023-04-27T08:34:27;92611.84;;;13.28;41.86
39681;BME280;26327;42.550;23.120;2023-04-27T08:36:53;92657.03;;;14.26;38.54
39681;BME280;26327;42.550;23.120;2023-04-27T08:39:19;92606.28;;;13.95;37.73
39681;BME280;26327;42.550;23.120;2023-04-27T08:41:45;92673.78;;;13.98;39.01
39681;BME280;26327;42.550;23.120;2023-04-27T08:44:11;92668.53;;;14.05;39.29
39681;BME280;26327;42.550;23.120;2023-04-27T08:46:37;92677.81;;;13.94;38.99
39681;BME280;26327;42.550;23.120;2023-04-27T08:49:02;92654.16;;;13.63;38.88
39681;BME280;26327;42.550;23.120;2023-04-27T08:51:28;92666.41;;;13.62;38.89
39681;BME280;26327;42.550;23.120;2023-04-27T08:53:55;92694.38;;;16.58;34.76
39681;BME280;26327;42.550;23.120;2023-04-27T08:56:23;92620.34;;;18.45;33.28
39681;BME280;26327;42.550;23.120;2023-04-27T08:58:53;92641.59;;;20.68;31.21
39681;BME280;26327;42.550;23.120;2023-04-27T09:01:19;92664.81;;;22.33;26.42
39681;BME280;26327;42.550;23.120;2023-04-27T09:03:46;92671.66;;;24.09;25.77
39681;BME280;26327;42.550;23.120;2023-04-27T09:06:12;92653.69;;;25.01;22.81
39681;BME280;26327;42.550;23.120;2023-04-27T09:08:48;92663.72;;;24.14;23.72
39681;BME280;26327;42.550;23.120;2023-04-27T09:11:15;92597.53;;;22.86;24.14
39681;BME280;26327;42.550;23.120;2023-04-27T09:13:51;92666.38;;;21.64;26.72
39681;BME280;26327;42.550;23.120;2023-04-27T09:16:22;92679.56;;;20.84;26.47
39681;BME280;26327;42.550;23.120;2023-04-27T09:18:48;92674.97;;;20.19;27.29
39681;BME280;26327;42.550;23.120;2023-04-27T09:21:24;92666.41;;;21.38;25.59
39681;BME280;26327;42.550;23.120;2023-04-27T09:23:50;92607.88;;;22.25;24.99
39681;BME280;26327;42.550;23.120;2023-04-27T09:26:33;92665.84;;;21.30;25.82
39681;BME280;26327;42.550;23.120;2023-04-27T09:28:58;92571.25;;;20.57;26.35
39681;BME280;26327;42.550;23.120;2023-04-27T09:31:31;92670.38;;;20.31;27.88
39681;BME280;26327;42.550;23.120;2023-04-27T09:33:57;92648.50;;;19.58;28.58
39681;BME280;26327;42.550;23.120;2023-04-27T09:36:23;92609.22;;;19.28;27.73
39681;BME280;26327;42.550;23.120;2023-04-27T09:38:50;92599.81;;;19.15;28.48
39681;BME280;26327;42.550;23.120;2023-04-27T09:41:17;92607.16;;;21.06;26.39
39681;BME280;26327;42.550;23.120;2023-04-27T09:43:43;92603.72;;;24.18;22.92
39681;BME280;26327;42.550;23.120;2023-04-27T09:46:14;92647.00;;;25.19;21.27
39681;BME280;26327;42.550;23.120;2023-04-27T09:48:40;92642.41;;;25.74;22.15
39681;BME280;26327;42.550;23.120;2023-04-27T09:51:06;92638.88;;;25.84;20.97
39681;BME280;26327;42.550;23.120;2023-04-27T09:53:39;92639.03;;;26.79;20.89
39681;BME280;26327;42.550;23.120;2023-04-27T09:58:55;92642.72;;;25.67;21.65
39681;BME280;26327;42.550;23.120;2023-04-27T10:01:39;92647.66;;;27.38;19.35
39681;BME280;26327;42.550;23.120;2023-04-27T10:07:01;92637.56;;;29.38;18.50
39681;BME280;26327;42.550;23.120;2023-04-27T10:09:39;92609.75;;;28.11;18.70
39681;BME280;26327;42.550;23.120;2023-04-27T10:12:33;92649.56;;;29.41;17.45
39681;BME280;26327;42.550;23.120;2023-04-27T10:15:11;92642.25;;;27.24;18.71
39681;BME280;26327;42.550;23.120;2023-04-27T10:17:37;92555.34;;;25.80;20.05
39681;BME280;26327;42.550;23.120;2023-04-27T10:20:04;92595.59;;;25.29;20.76
39681;BME280;26327;42.550;23.120;2023-04-27T10:22:40;92652.56;;;23.97;21.44
39681;BME280;26327;42.550;23.120;2023-04-27T10:25:24;92649.16;;;23.76;21.82
39681;BME280;26327;42.550;23.120;2023-04-27T10:27:54;92647.81;;;23.89;22.44
39681;BME280;26327;42.550;23.120;2023-04-27T10:30:22;92599.41;;;22.96;23.08
39681;BME280;26327;42.550;23.120;2023-04-27T10:32:53;92585.63;;;22.26;22.96
39681;BME280;26327;42.550;23.120;2023-04-27T10:35:20;92654.91;;;21.81;24.15
39681;BME280;26327;42.550;23.120;2023-04-27T10:37:46;92641.25;;;20.81;25.31
39681;BME280;26327;42.550;23.120;2023-04-27T10:40:13;92636.09;;;19.92;27.23
39681;BME280;26327;42.550;23.120;2023-04-27T10:42:40;92641.63;;;19.74;25.93
39681;BME280;26327;42.550;23.120;2023-04-27T10:45:06;92587.22;;;20.67;25.24
39681;BME280;26327;42.550;23.120;2023-04-27T10:47:36;92586.38;;;22.79;23.39
39681;BME280;26327;42.550;23.120;2023-04-27T10:50:04;92631.34;;;24.33;21.79
39681;BME280;26327;42.550;23.120;2023-04-27T10:52:30;92572.91;;;24.38;20.96
39681;BME280;26327;42.550;23.120;2023-04-27T10:54:56;92575.41;;;23.78;22.24
39681;BME280;26327;42.550;23.120;2023-04-27T10:57:21;92634.00;;;24.28;21.99
39681;BME280;26327;42.550;23.120;2023-04-27T10:59:52;92598.16;;;24.20;22.01
39681;BME280;26327;42.550;23.120;2023-04-27T11:02:25;92629.88;;;24.76;22.14
39681;BME280;26327;42.550;23.120;2023-04-27T11:04:51;92638.00;;;25.10;22.26
39681;BME280;26327;42.550;23.120;2023-04-27T11:07:26;92578.72;;;24.45;21.33
39681;BME280;26327;42.550;23.120;2023-04-27T11:09:52;92631.56;;;24.41;20.86
39681;BME280;26327;42.550;23.120;2023-04-27T11:12:17;92585.38;;;22.90;21.78
39681;BME280;26327;42.550;23.120;2023-04-27T11:14:43;92587.22;;;22.84;23.55
39681;BME280;26327;42.550;23.120;2023-04-27T11:17:08;92559.81;;;22.63;22.95
39681;BME280;26327;42.550;23.120;2023-04-27T11:19:43;92635.06;;;23.86;22.27
39681;BME280;26327;42.550;23.120;2023-04-27T11:22:10;92627.94;;;23.66;21.91
39681;BME280;26327;42.550;23.120;2023-04-27T11:24:35;92542.13;;;22.74;23.17
39681;BME280;26327;42.550;23.120;2023-04-27T11:27:01;92574.34;;;22.46;23.49
39681;BME280;26327;42.550;23.120;2023-04-27T11:29:37;92560.69;;;22.17;25.09
39681;BME280;26327;42.550;23.120;2023-04-27T11:32:03;92553.81;;;21.74;23.85
39681;BME280;26327;42.550;23.120;2023-04-27T11:34:28;92629.28;;;21.54;24.16
39681;BME280;26327;42.550;23.120;2023-04-27T11:37:00;92578.81;;;21.24;25.49
39681;BME280;26327;42.550;23.120;2023-04-27T11:39:31;92644.19;;;21.65;25.46
39681;BME280;26327;42.550;23.120;2023-04-27T11:41:57;92618.81;;;21.32;24.90
39681;BME280;26327;42.550;23.120;2023-04-27T11:44:38;92606.25;;;20.47;25.24
39681;BME280;26327;42.550;23.120;2023-04-27T11:47:06;92622.22;;;20.19;25.09
39681;BME280;26327;42.550;23.120;2023-04-27T11:49:33;92646.47;;;19.99;26.00
39681;BME280;26327;42.550;23.120;2023-04-27T11:52:02;92644.66;;;19.66;26.78
39681;BME280;26327;42.550;23.120;2023-04-27T11:54:29;92621.88;;;19.43;27.34
39681;BME280;26327;42.550;23.120;2023-04-27T11:57:06;92633.25;;;19.32;26.84
39681;BME280;26327;42.550;23.120;2023-04-27T11:59:33;92657.75;;;19.15;27.09
39681;BME280;26327;42.550;23.120;2023-04-27T12:01:59;92650.13;;;18.74;28.10
39681;BME280;26327;42.550;23.120;2023-04-27T12:04:25;92578.88;;;18.23;27.90
39681;BME280;26327;42.550;23.120;2023-04-27T12:06:50;92607.84;;;18.12;29.75
39681;BME280;26327;42.550;23.120;2023-04-27T12:09:16;92650.66;;;18.47;28.69
39681;BME280;26327;42.550;23.120;2023-04-27T12:11:41;92650.09;;;18.34;28.70
39681;BME280;26327;42.550;23.120;2023-04-27T12:14:08;92584.88;;;17.60;28.90
39681;BME280;26327;42.550;23.120;2023-04-27T12:16:34;92598.94;;;17.66;30.07
39681;BME280;26327;42.550;23.120;2023-04-27T12:18:59;92571.38;;;17.10;29.73
39681;BME280;26327;42.550;23.120;2023-04-27T12:21:25;92675.41;;;18.00;29.97
39681;BME280;26327;42.550;23.120;2023-04-27T12:23:51;92665.44;;;17.67;29.29
39681;BME280;26327;42.550;23.120;2023-04-27T12:26:16;92647.72;;;17.62;29.63
39681;BME280;26327;42.550;23.120;2023-04-27T12:28:42;92659.94;;;17.56;29.55
39681;BME280;26327;42.550;23.120;2023-04-27T12:31:12;92643.53;;;17.19;31.21
39681;BME280;26327;42.550;23.120;2023-04-27T12:33:38;92664.38;;;17.56;30.07
39681;BME280;26327;42.550;23.120;2023-04-27T12:36:03;92630.06;;;17.27;31.67
39681;BME280;26327;42.550;23.120;2023-04-27T12:38:29;92660.28;;;17.60;29.45
39681;BME280;26327;42.550;23.120;2023-04-27T12:40:54;92662.00;;;16.64;29.71
39681;BME280;26327;42.550;23.120;2023-04-27T12:43:20;92644.69;;;16.93;31.22
39681;BME280;26327;42.550;23.120;2023-04-27T12:45:45;92606.03;;;17.00;29.57
39681;BME280;26327;42.550;23.120;2023-04-27T12:48:11;92581.16;;;16.61;30.00
39681;BME280;26327;42.550;23.120;2023-04-27T12:50:36;92645.19;;;16.72;32.05
39681;BME280;26327;42.550;23.120;2023-04-27T12:53:02;92670.59;;;16.90;31.33
39681;BME280;26327;42.550;23.120;2023-04-27T12:55:27;92661.94;;;17.01;31.33
39681;BME280;26327;42.550;23.120;2023-04-27T12:57:53;92662.09;;;16.76;29.88
39681;BME280;26327;42.550;23.120;2023-04-27T13:00:20;92628.66;;;16.72;30.62
39681;BME280;26327;42.550;23.120;2023-04-27T13:02:45;92641.78;;;16.72;30.21
39681;BME280;26327;42.550;23.120;2023-04-27T13:05:10;92576.84;;;16.00;30.98
39681;BME280;26327;42.550;23.120;2023-04-27T13:07:36;92640.38;;;16.69;30.61
39681;BME280;26327;42.550;23.120;2023-04-27T13:10:02;92660.69;;;16.55;31.40
39681;BME280;26327;42.550;23.120;2023-04-27T13:12:27;92677.31;;;16.49;31.56
39681;BME280;26327;42.550;23.120;2023-04-27T13:14:53;92614.28;;;16.26;30.83
39681;BME280;26327;42.550;23.120;2023-04-27T13:17:18;92635.03;;;16.27;31.20
39681;BME280;26327;42.550;23.120;2023-04-27T13:19:44;92602.41;;;15.87;32.00
39681;BME280;26327;42.550;23.120;2023-04-27T13:22:09;92580.63;;;15.25;32.78
39681;BME280;26327;42.550;23.120;2023-04-27T13:24:35;92587.47;;;15.44;33.80
39681;BME280;26327;42.550;23.120;2023-04-27T13:27:01;92661.06;;;16.04;32.54
39681;BME280;26327;42.550;23.120;2023-04-27T13:29:27;92644.31;;;15.68;33.90
39681;BME280;26327;42.550;23.120;2023-04-27T13:31:53;92651.78;;;15.65;32.46
39681;BME280;26327;42.550;23.120;2023-04-27T13:34:18;92580.06;;;15.41;33.47
39681;BME280;26327;42.550;23.120;2023-04-27T13:36:43;92572.63;;;15.38;32.99
39681;BME280;26327;42.550;23.120;2023-04-27T13:39:09;92632.97;;;15.93;32.36
39681;BME280;26327;42.550;23.120;2023-04-27T13:41:34;92654.19;;;16.10;31.79
39681;BME280;26327;42.550;23.120;2023-04-27T13:44:00;92660.03;;;16.05;33.08
39681;BME280;26327;42.550;23.120;2023-04-27T13:46:26;92633.47;;;15.83;33.19
39681;BME280;26327;42.550;23.120;2023-04-27T13:48:51;92631.22;;;15.87;32.40
39681;BME280;26327;42.550;23.120;2023-04-27T13:51:17;92609.09;;;15.83;32.67
39681;BME280;26327;42.550;23.120;2023-04-27T13:53:42;92628.75;;;15.73;31.57
39681;BME280;26327;42.550;23.120;2023-04-27T13:56:08;92663.56;;;15.49;32.69
39681;BME280;26327;42.550;23.120;2023-04-27T13:58:33;92638.25;;;15.43;32.69
39681;BME280;26327;42.550;23.120;2023-04-27T14:00:59;92647.91;;;15.42;32.50
39681;BME280;26327;42.550;23.120;2023-04-27T14:03:25;92654.81;;;15.37;32.75
39681;BME280;26327;42.550;23.120;2023-04-27T14:05:50;92575.41;;;14.93;33.93
39681;BME280;26327;42.550;23.120;2023-04-27T14:08:16;92667.72;;;15.57;31.95
39681;BME280;26327;42.550;23.120;2023-04-27T14:10:43;92666.81;;;15.44;33.33
39681;BME280;26327;42.550;23.120;2023-04-27T14:13:09;92669.34;;;15.58;33.49
39681;BME280;26327;42.550;23.120;2023-04-27T14:15:35;92594.25;;;15.02;31.93
39681;BME280;26327;42.550;23.120;2023-04-27T14:18:05;92673.97;;;15.56;32.62
39681;BME280;26327;42.550;23.120;2023-04-27T14:20:31;92671.31;;;15.37;33.75
39681;BME280;26327;42.550;23.120;2023-04-27T14:22:58;92614.22;;;14.96;32.95
39681;BME280;26327;42.550;23.120;2023-04-27T14:25:23;92542.06;;;14.57;34.59
39681;BME280;26327;42.550;23.120;2023-04-27T14:27:48;92611.78;;;15.01;33.32
39681;BME280;26327;42.550;23.120;2023-04-27T14:30:14;92676.50;;;15.19;33.32
39681;BME280;26327;42.550;23.120;2023-04-27T14:32:39;92625.75;;;15.20;34.32
39681;BME280;26327;42.550;23.120;2023-04-27T14:35:06;92676.38;;;15.64;35.15
39681;BME280;26327;42.550;23.120;2023-04-27T14:37:31;92603.44;;;15.11;34.52
39681;BME280;26327;42.550;23.120;2023-04-27T14:39:57;92628.59;;;15.19;32.06
39681;BME280;26327;42.550;23.120;2023-04-27T14:42:22;92696.06;;;15.41;34.08
39681;BME280;26327;42.550;23.120;2023-04-27T14:44:48;92588.19;;;14.83;34.03
39681;BME280;26327;42.550;23.120;2023-04-27T14:47:13;92685.00;;;15.39;33.90
39681;BME280;26327;42.550;23.120;2023-04-27T14:49:39;92604.72;;;15.02;32.76
39681;BME280;26327;42.550;23.120;2023-04-27T14:52:04;92705.44;;;15.49;32.41
39681;BME280;26327;42.550;23.120;2023-04-27T14:54:31;92701.53;;;15.33;32.92
39681;BME280;26327;42.550;23.120;2023-04-27T14:56:57;92713.50;;;15.23;33.58
39681;BME280;26327;42.550;23.120;2023-04-27T14:59:23;92652.63;;;14.71;32.30
39681;BME280;26327;42.550;23.120;2023-04-27T15:01:48;92698.97;;;14.95;33.34
39681;BME280;26327;42.550;23.120;2023-04-27T15:04:14;92709.16;;;14.72;33.64
39681;BME280;26327;42.550;23.120;2023-04-27T15:06:40;92708.19;;;14.60;34.44
39681;BME280;26327;42.550;23.120;2023-04-27T15:09:05;92699.00;;;14.44;33.55
39681;BME280;26327;42.550;23.120;2023-04-27T15:11:31;92648.69;;;13.91;34.42
39681;BME280;26327;42.550;23.120;2023-04-27T15:13:57;92668.78;;;13.70;34.75
39681;BME280;26327;42.550;23.120;2023-04-27T15:16:22;92735.28;;;13.81;34.98
39681;BME280;26327;42.550;23.120;2023-04-27T15:18:47;92724.84;;;13.54;35.19
39681;BME280;26327;42.550;23.120;2023-04-27T15:21:13;92716.59;;;13.31;36.70
39681;BME280;26327;42.550;23.120;2023-04-27T15:23:38;92726.66;;;13.34;36.49
39681;BME280;26327;42.550;23.120;2023-04-27T15:26:04;92748.72;;;13.45;36.72
39681;BME280;26327;42.550;23.120;2023-04-27T15:28:29;92754.75;;;13.45;35.58
39681;BME280;26327;42.550;23.120;2023-04-27T15:30:57;92677.78;;;12.88;36.34
39681;BME280;26327;42.550;23.120;2023-04-27T15:33:23;92723.34;;;12.92;36.81
39681;BME280;26327;42.550;23.120;2023-04-27T15:35:49;92756.25;;;13.07;37.22
39681;BME280;26327;42.550;23.120;2023-04-27T15:38:14;92756.03;;;12.95;37.01
39681;BME280;26327;42.550;23.120;2023-04-27T15:40:40;92656.59;;;12.31;36.60
39681;BME280;26327;42.550;23.120;2023-04-27T15:43:06;92744.78;;;12.88;37.17
39681;BME280;26327;42.550;23.120;2023-04-27T15:45:31;92751.53;;;12.76;37.16
39681;BME280;26327;42.550;23.120;2023-04-27T15:47:57;92676.16;;;12.20;36.91
39681;BME280;26327;42.550;23.120;2023-04-27T15:50:23;92666.94;;;12.17;36.74
39681;BME280;26327;42.550;23.120;2023-04-27T15:52:48;92684.38;;;12.23;37.48
39681;BME280;26327;42.550;23.120;2023-04-27T15:55:14;92616.59;;;11.69;37.85
39681;BME280;26327;42.550;23.120;2023-04-27T15:57:40;92686.09;;;12.03;38.03
39681;BME280;26327;42.550;23.120;2023-04-27T16:00:06;92676.25;;;11.92;38.73
39681;BME280;26327;42.550;23.120;2023-04-27T16:02:34;92730.34;;;12.31;39.17
39681;BME280;26327;42.550;23.120;2023-04-27T16:05:00;92733.75;;;12.32;38.11
39681;BME280;26327;42.550;23.120;2023-04-27T16:07:26;92753.53;;;12.26;38.17
39681;BME280;26327;42.550;23.120;2023-04-27T16:09:51;92633.94;;;11.55;38.21
39681;BME280;26327;42.550;23.120;2023-04-27T16:12:17;92695.59;;;12.17;37.08
39681;BME280;26327;42.550;23.120;2023-04-27T16:14:42;92746.78;;;12.32;37.84
39681;BME280;26327;42.550;23.120;2023-04-27T16:17:08;92716.44;;;12.24;38.35
39681;BME280;26327;42.550;23.120;2023-04-27T16:19:33;92720.59;;;12.12;37.94
39681;BME280;26327;42.550;23.120;2023-04-27T16:21:58;92701.56;;;12.11;38.06
39681;BME280;26327;42.550;23.120;2023-04-27T16:24:27;92704.34;;;12.03;38.11
39681;BME280;26327;42.550;23.120;2023-04-27T16:26:53;92796.56;;;12.50;37.92
39681;BME280;26327;42.550;23.120;2023-04-27T16:29:18;92684.56;;;11.81;38.48
39681;BME280;26327;42.550;23.120;2023-04-27T16:31:43;92732.59;;;12.06;38.37
39681;BME280;26327;42.550;23.120;2023-04-27T16:34:09;92752.66;;;12.12;39.65
39681;BME280;26327;42.550;23.120;2023-04-27T16:36:35;92800.50;;;12.05;39.66
39681;BME280;26327;42.550;23.120;2023-04-27T16:39:00;92774.38;;;11.91;39.62
39681;BME280;26327;42.550;23.120;2023-04-27T16:41:27;92804.00;;;12.25;38.70
39681;BME280;26327;42.550;23.120;2023-04-27T16:43:52;92817.63;;;12.20;39.16
39681;BME280;26327;42.550;23.120;2023-04-27T16:46:18;92791.31;;;12.09;39.52
39681;BME280;26327;42.550;23.120;2023-04-27T16:48:43;92746.91;;;11.89;39.68
39681;BME280;26327;42.550;23.120;2023-04-27T16:51:09;92812.75;;;12.11;39.71
39681;BME280;26327;42.550;23.120;2023-04-27T16:53:35;92793.44;;;11.98;38.89
39681;BME280;26327;42.550;23.120;2023-04-27T16:56:01;92747.69;;;11.61;40.14
39681;BME280;26327;42.550;23.120;2023-04-27T16:58:27;92828.38;;;12.11;40.24
39681;BME280;26327;42.550;23.120;2023-04-27T17:00:53;92831.78;;;12.11;40.16
39681;BME280;26327;42.550;23.120;2023-04-27T17:03:18;92812.91;;;11.81;40.57
39681;BME280;26327;42.550;23.120;2023-04-27T17:05:44;92831.50;;;11.78;40.89
39681;BME280;26327;42.550;23.120;2023-04-27T17:08:09;92826.13;;;11.58;40.43
39681;BME280;26327;42.550;23.120;2023-04-27T17:10:35;92830.88;;;11.55;41.42
39681;BME280;26327;42.550;23.120;2023-04-27T17:13:03;92833.16;;;11.22;42.09
39681;BME280;26327;42.550;23.120;2023-04-27T17:15:29;92843.13;;;11.18;43.26
39681;BME280;26327;42.550;23.120;2023-04-27T17:17:55;92819.94;;;11.02;42.95
39681;BME280;26327;42.550;23.120;2023-04-27T17:20:20;92825.00;;;10.89;43.67
39681;BME280;26327;42.550;23.120;2023-04-27T17:22:46;92834.63;;;11.10;44.16
39681;BME280;26327;42.550;23.120;2023-04-27T17:25:11;92787.09;;;10.80;43.98
39681;BME280;26327;42.550;23.120;2023-04-27T17:27:37;92850.56;;;11.21;43.73
39681;BME280;26327;42.550;23.120;2023-04-27T17:30:04;92798.47;;;10.43;44.42
39681;BME280;26327;42.550;23.120;2023-04-27T17:32:30;92795.22;;;10.40;45.42
39681;BME280;26327;42.550;23.120;2023-04-27T17:34:55;92877.06;;;10.81;45.61
39681;BME280;26327;42.550;23.120;2023-04-27T17:37:21;92864.09;;;10.66;45.99
39681;BME280;26327;42.550;23.120;2023-04-27T17:39:47;92797.00;;;10.25;46.33
39681;BME280;26327;42.550;23.120;2023-04-27T17:42:15;92796.19;;;10.10;46.92